createdAt,value
2018-01-27T00:00:39.895Z,7.20
2018-01-27T00:03:07.327Z,7.20
2018-01-27T00:05:35.531Z,7.00
2018-01-27T00:08:03.007Z,7.00
2018-01-27T00:10:31.172Z,6.90
2018-01-27T00:12:58.614Z,6.90
2018-01-27T00:15:26.814Z,6.90
2018-01-27T00:17:54.284Z,6.90
2018-01-27T00:20:22.481Z,7.00
2018-01-27T00:22:51.959Z,7.00
2018-01-27T00:25:19.394Z,7.00
2018-01-27T00:27:46.832Z,6.90
2018-01-27T00:30:15.041Z,6.90
2018-01-27T00:32:42.476Z,6.90
2018-01-27T00:35:09.911Z,6.90
2018-01-27T00:37:38.112Z,6.90
2018-01-27T00:40:05.543Z,6.80
2018-01-27T00:42:33.743Z,6.80
2018-01-27T00:45:01.168Z,6.80
2018-01-27T00:47:28.613Z,6.80
2018-01-27T00:49:56.088Z,6.80
2018-01-27T00:52:24.287Z,6.70
2018-01-27T00:54:51.716Z,6.70
2018-01-27T00:57:19.148Z,6.70
2018-01-27T00:59:46.588Z,6.70
2018-01-27T01:02:14.020Z,6.70
2018-01-27T01:04:41.464Z,6.60
2018-01-27T01:07:09.664Z,6.60
2018-01-27T01:09:37.108Z,6.60
2018-01-27T01:12:04.531Z,6.60
2018-01-27T01:14:32.732Z,6.40
2018-01-27T01:17:00.169Z,6.40
2018-01-27T01:19:28.378Z,6.30
2018-01-27T01:21:55.804Z,6.30
2018-01-27T01:24:24.076Z,6.20
2018-01-27T01:26:52.281Z,6.20
2018-01-27T01:29:19.716Z,6.20
2018-01-27T01:31:47.925Z,6.10
2018-01-27T01:34:15.368Z,6.10
2018-01-27T01:36:42.820Z,6.10
2018-01-27T01:39:10.255Z,6.10
2018-01-27T01:41:38.456Z,6.10
2018-01-27T01:44:11.484Z,6.10
2018-01-27T01:46:38.925Z,6.00
2018-01-27T01:49:18.263Z,6.00
2018-01-27T01:51:45.707Z,6.00
2018-01-27T01:54:13.152Z,6.00
2018-01-27T01:56:40.576Z,5.90
2018-01-27T01:59:08.780Z,5.90
2018-01-27T02:01:36.216Z,5.90
2018-01-27T02:04:04.411Z,5.80
2018-01-27T02:06:31.836Z,5.80
2018-01-27T02:08:59.272Z,5.70
2018-01-27T02:11:26.709Z,5.70
2018-01-27T02:13:54.213Z,5.70
2018-01-27T02:16:22.435Z,5.60
2018-01-27T02:18:49.869Z,5.60
2018-01-27T02:21:17.300Z,5.60
2018-01-27T02:23:45.499Z,5.60
2018-01-27T02:26:12.945Z,5.60
2018-01-27T02:28:41.153Z,5.50
2018-01-27T02:31:08.588Z,5.50
2018-01-27T02:33:36.016Z,5.50
2018-01-27T02:36:04.136Z,5.50
2018-01-27T02:38:31.560Z,5.50
2018-01-27T02:40:59.771Z,5.50
2018-01-27T02:43:27.202Z,5.50
2018-01-27T02:45:54.639Z,5.60
2018-01-27T02:48:22.834Z,5.50
2018-01-27T02:50:50.263Z,5.50
2018-01-27T02:53:17.694Z,5.50
2018-01-27T02:55:45.139Z,5.50
2018-01-27T02:58:12.568Z,5.50
2018-01-27T03:00:40.005Z,5.50
2018-01-27T03:03:08.241Z,5.60
2018-01-27T03:05:35.679Z,5.60
2018-01-27T03:08:03.111Z,5.70
2018-01-27T03:10:30.550Z,5.70
2018-01-27T03:12:58.744Z,5.60
2018-01-27T03:15:26.176Z,5.60
2018-01-27T03:17:54.370Z,5.70
2018-01-27T03:20:21.799Z,5.70
2018-01-27T03:22:49.229Z,5.70
2018-01-27T03:25:16.657Z,5.70
2018-01-27T03:27:44.095Z,5.70
2018-01-27T03:30:11.527Z,5.70
2018-01-27T03:32:38.959Z,5.70
2018-01-27T03:35:06.383Z,5.80
2018-01-27T03:37:33.818Z,5.80
2018-01-27T03:40:02.020Z,5.80
2018-01-27T03:42:29.451Z,5.80
2018-01-27T03:44:56.879Z,5.80
2018-01-27T03:47:24.305Z,5.80
2018-01-27T03:49:51.736Z,5.80
2018-01-27T03:52:19.154Z,5.80
2018-01-27T03:54:46.603Z,5.80
2018-01-27T03:57:14.031Z,5.70
2018-01-27T03:59:41.463Z,5.70
2018-01-27T04:02:08.903Z,5.70
2018-01-27T04:04:37.163Z,5.70
2018-01-27T04:07:05.403Z,5.70
2018-01-27T04:09:32.790Z,5.70
2018-01-27T04:12:00.219Z,5.80
2018-01-27T04:14:27.659Z,5.70
2018-01-27T04:16:55.086Z,5.70
2018-01-27T04:19:22.530Z,5.70
2018-01-27T04:21:50.720Z,5.80
2018-01-27T04:24:18.146Z,5.80
2018-01-27T04:26:45.571Z,5.80
2018-01-27T04:29:13.013Z,5.80
2018-01-27T04:31:40.439Z,5.90
2018-01-27T04:34:07.885Z,5.90
2018-01-27T04:36:36.079Z,5.80
2018-01-27T04:39:03.510Z,5.80
2018-01-27T04:41:31.705Z,5.70
2018-01-27T04:43:59.138Z,5.70
2018-01-27T04:46:26.568Z,5.70
2018-01-27T04:48:54.002Z,5.70
2018-01-27T04:51:21.457Z,5.60
2018-01-27T04:53:48.870Z,5.70
2018-01-27T04:56:17.078Z,5.70
2018-01-27T04:58:44.507Z,5.70
2018-01-27T05:01:12.698Z,5.70
2018-01-27T05:03:40.131Z,5.60
2018-01-27T05:06:08.323Z,5.60
2018-01-27T05:08:36.528Z,5.60
2018-01-27T05:11:03.972Z,5.60
2018-01-27T05:13:31.398Z,5.50
2018-01-27T05:15:58.818Z,5.40
2018-01-27T05:18:26.254Z,5.30
2018-01-27T05:20:53.691Z,5.30
2018-01-27T05:23:21.119Z,5.20
2018-01-27T05:25:49.335Z,5.10
2018-01-27T05:28:16.750Z,5.10
2018-01-27T05:30:44.178Z,5.10
2018-01-27T05:33:11.653Z,5.10
2018-01-27T05:35:39.097Z,5.00
2018-01-27T05:38:06.535Z,5.00
2018-01-27T05:40:33.967Z,5.00
2018-01-27T05:43:01.403Z,4.90
2018-01-27T05:45:29.604Z,4.90
2018-01-27T05:47:57.030Z,4.90
2018-01-27T05:50:25.229Z,4.80
2018-01-27T05:52:52.647Z,4.80
2018-01-27T05:55:20.094Z,4.80
2018-01-27T05:57:47.519Z,4.70
2018-01-27T06:00:14.952Z,4.70
2018-01-27T06:02:42.379Z,4.70
2018-01-27T06:05:10.584Z,4.40
2018-01-27T06:07:38.026Z,4.40
2018-01-27T06:10:06.219Z,4.30
2018-01-27T06:12:33.646Z,4.30
2018-01-27T06:15:01.066Z,4.20
2018-01-27T06:17:28.507Z,4.20
2018-01-27T06:19:55.933Z,4.20
2018-01-27T06:22:23.389Z,4.20
2018-01-27T06:24:51.582Z,4.10
2018-01-27T06:27:19.034Z,4.10
2018-01-27T06:29:46.456Z,4.10
2018-01-27T06:32:13.890Z,4.10
2018-01-27T06:34:41.316Z,4.10
2018-01-27T06:37:08.760Z,4.00
2018-01-27T06:39:36.187Z,4.00
2018-01-27T06:42:03.622Z,4.00
2018-01-27T06:44:31.056Z,4.00
2018-01-27T06:46:58.488Z,4.00
2018-01-27T06:49:25.934Z,4.00
2018-01-27T06:51:53.373Z,4.10
2018-01-27T06:54:21.570Z,4.20
2018-01-27T06:56:48.999Z,4.20
2018-01-27T06:59:16.435Z,4.30
2018-01-27T07:01:43.879Z,4.30
2018-01-27T07:04:11.303Z,4.30
2018-01-27T07:06:38.743Z,4.30
2018-01-27T07:09:06.968Z,4.30
2018-01-27T07:11:34.384Z,4.20
2018-01-27T07:14:01.852Z,4.30
2018-01-27T07:16:29.294Z,4.30
2018-01-27T07:18:57.483Z,4.30
2018-01-27T07:21:24.909Z,4.30
2018-01-27T07:23:53.111Z,4.20
2018-01-27T07:26:20.548Z,4.20
2018-01-27T07:28:49.740Z,4.20
2018-01-27T07:31:17.959Z,4.10
2018-01-27T07:33:45.376Z,4.10
2018-01-27T07:36:13.590Z,4.10
2018-01-27T07:38:41.012Z,4.00
2018-01-27T07:41:09.221Z,4.10
2018-01-27T07:43:36.634Z,4.00
2018-01-27T07:46:08.290Z,4.10
2018-01-27T07:48:36.499Z,4.10
2018-01-27T07:51:03.930Z,4.10
2018-01-27T07:53:32.126Z,4.20
2018-01-27T07:55:59.559Z,4.20
2018-01-27T07:58:27.758Z,4.30
2018-01-27T08:00:55.191Z,4.30
2018-01-27T08:03:24.382Z,4.40
2018-01-27T08:05:52.667Z,4.40
2018-01-27T08:08:20.859Z,4.50
2018-01-27T08:10:48.309Z,4.50
2018-01-27T08:13:16.514Z,4.40
2018-01-27T08:15:43.935Z,4.40
2018-01-27T08:18:12.129Z,4.50
2018-01-27T08:20:39.562Z,4.40
2018-01-27T08:23:07.828Z,4.40
2018-01-27T08:25:36.046Z,4.40
2018-01-27T08:28:03.467Z,4.30
2018-01-27T08:30:31.668Z,4.10
2018-01-27T08:32:59.097Z,4.00
2018-01-27T08:35:27.296Z,4.10
2018-01-27T08:37:54.738Z,4.10
2018-01-27T08:40:22.943Z,4.20
2018-01-27T08:42:50.355Z,4.10
2018-01-27T08:45:18.559Z,4.20
2018-01-27T08:47:45.994Z,4.20
2018-01-27T08:50:14.190Z,4.30
2018-01-27T08:52:41.652Z,4.30
2018-01-27T08:55:09.058Z,4.30
2018-01-27T08:57:36.486Z,4.30
2018-01-27T09:00:03.927Z,4.20
2018-01-27T09:02:31.352Z,4.30
2018-01-27T09:04:59.543Z,4.00
2018-01-27T09:07:26.968Z,4.00
2018-01-27T09:09:54.400Z,4.10
2018-01-27T09:12:21.864Z,4.00
2018-01-27T09:14:49.307Z,3.90
2018-01-27T09:17:16.741Z,3.90
2018-01-27T09:19:44.176Z,4.00
2018-01-27T09:22:12.367Z,3.90
2018-01-27T09:24:39.807Z,3.90
2018-01-27T09:27:08.007Z,4.10
2018-01-27T09:29:35.439Z,4.00
2018-01-27T09:32:03.644Z,4.30
2018-01-27T09:34:31.087Z,4.30
2018-01-27T09:36:58.518Z,4.30
2018-01-27T09:39:26.726Z,4.40
2018-01-27T09:41:54.163Z,4.40
2018-01-27T09:44:22.357Z,4.60
2018-01-27T09:46:49.793Z,4.60
2018-01-27T09:49:18.004Z,4.60
2018-01-27T09:51:45.436Z,4.50
2018-01-27T09:54:12.873Z,4.60
2018-01-27T09:56:41.067Z,4.70
2018-01-27T09:59:08.495Z,4.70
2018-01-27T10:01:36.694Z,4.60
2018-01-27T10:04:04.128Z,4.60
2018-01-27T10:06:32.326Z,4.80
2018-01-27T10:08:59.759Z,4.80
2018-01-27T10:11:29.991Z,4.90
2018-01-27T10:13:58.200Z,5.00
2018-01-27T10:16:25.628Z,5.00
2018-01-27T10:18:53.821Z,5.00
2018-01-27T10:21:21.258Z,5.00
2018-01-27T10:23:49.447Z,5.20
2018-01-27T10:26:16.874Z,5.10
2018-01-27T10:28:45.075Z,5.10
2018-01-27T10:31:12.522Z,5.10
2018-01-27T10:33:40.728Z,5.20
2018-01-27T10:36:08.164Z,5.20
2018-01-27T10:38:35.590Z,5.30
2018-01-27T10:41:03.048Z,5.20
2018-01-27T10:43:30.479Z,5.30
2018-01-27T10:45:57.910Z,5.40
2018-01-27T10:48:25.335Z,5.40
2018-01-27T10:50:54.515Z,5.40
2018-01-27T10:53:21.943Z,5.40
2018-01-27T10:55:49.388Z,5.40
2018-01-27T10:58:16.820Z,5.50
2018-01-27T11:00:48.132Z,5.50
2018-01-27T11:03:15.549Z,5.40
2018-01-27T11:05:42.986Z,5.40
2018-01-27T11:08:10.407Z,5.30
2018-01-27T11:10:37.839Z,5.40
2018-01-27T11:13:05.368Z,5.40
2018-01-27T11:15:32.845Z,5.40
2018-01-27T11:18:00.269Z,5.40
2018-01-27T11:20:27.695Z,5.50
2018-01-27T11:22:55.896Z,5.60
2018-01-27T11:25:23.335Z,5.50
2018-01-27T11:27:51.551Z,5.40
2018-01-27T11:30:18.968Z,5.40
2018-01-27T11:32:48.159Z,5.40
2018-01-27T11:35:16.345Z,5.30
2018-01-27T11:37:46.212Z,5.40
2018-01-27T11:40:13.647Z,5.40
2018-01-27T11:42:41.083Z,5.50
2018-01-27T11:45:08.525Z,5.50
2018-01-27T11:47:35.951Z,5.50
2018-01-27T11:50:03.386Z,5.50
2018-01-27T11:52:30.851Z,5.30
2018-01-27T11:54:58.305Z,5.20
2018-01-27T11:57:25.703Z,5.40
2018-01-27T11:59:53.901Z,5.30
2018-01-27T12:02:21.334Z,5.20
2018-01-27T12:04:49.536Z,5.50
2018-01-27T12:07:16.966Z,5.50
2018-01-27T12:09:45.168Z,5.70
2018-01-27T12:12:12.595Z,5.70
2018-01-27T12:14:40.787Z,5.90
2018-01-27T12:17:08.986Z,5.90
2018-01-27T12:19:36.418Z,5.90
2018-01-27T12:22:04.618Z,5.90
2018-01-27T12:24:32.050Z,5.90
2018-01-27T12:26:59.484Z,5.80
2018-01-27T12:29:26.923Z,5.90
2018-01-27T12:31:54.347Z,5.90
2018-01-27T12:34:21.783Z,5.80
2018-01-27T12:36:49.206Z,5.80
2018-01-27T12:39:16.640Z,5.60
2018-01-27T12:41:44.076Z,5.60
2018-01-27T12:44:11.533Z,5.60
2018-01-27T12:46:38.971Z,5.60
2018-01-27T12:49:06.408Z,5.60
2018-01-27T12:51:34.596Z,5.70
2018-01-27T12:54:02.033Z,5.70
2018-01-27T12:56:30.223Z,5.90
2018-01-27T12:58:57.658Z,5.90
2018-01-27T13:01:25.087Z,5.90
2018-01-27T13:03:52.512Z,6.00
2018-01-27T13:06:19.936Z,5.90
2018-01-27T13:08:48.133Z,6.00
2018-01-27T13:11:15.565Z,6.00
2018-01-27T13:13:43.782Z,5.90
2018-01-27T13:16:11.218Z,5.90
2018-01-27T13:18:38.646Z,5.90
2018-01-27T13:21:06.080Z,6.00
2018-01-27T13:23:33.510Z,6.10
2018-01-27T13:26:00.938Z,6.10
2018-01-27T13:28:29.123Z,6.30
2018-01-27T13:30:56.551Z,6.20
2018-01-27T13:33:24.750Z,6.30
2018-01-27T13:35:52.183Z,6.30
2018-01-27T13:38:20.379Z,6.20
2018-01-27T13:40:47.811Z,6.20
2018-01-27T13:43:15.233Z,6.20
2018-01-27T13:45:42.681Z,6.00
2018-01-27T13:48:10.125Z,6.00
2018-01-27T13:50:37.530Z,6.10
2018-01-27T13:53:04.963Z,6.10
2018-01-27T13:55:32.401Z,6.00
2018-01-27T13:57:59.833Z,5.90
2018-01-27T14:00:27.259Z,5.80
2018-01-27T14:02:54.691Z,5.80
2018-01-27T14:05:22.127Z,5.90
2018-01-27T14:07:49.571Z,5.90
2018-01-27T14:10:16.999Z,5.90
2018-01-27T14:12:45.190Z,5.90
2018-01-27T14:15:12.627Z,5.90
2018-01-27T14:17:40.085Z,5.90
2018-01-27T14:20:08.276Z,6.00
2018-01-27T14:22:36.484Z,6.00
2018-01-27T14:25:03.910Z,6.00
2018-01-27T14:27:31.346Z,6.00
2018-01-27T14:29:58.777Z,6.00
2018-01-27T14:32:26.220Z,5.90
2018-01-27T14:34:53.648Z,5.70
2018-01-27T14:37:21.070Z,5.60
2018-01-27T14:39:48.510Z,5.50
2018-01-27T14:42:15.939Z,5.50
2018-01-27T14:44:43.367Z,5.50
2018-01-27T14:47:10.791Z,5.40
2018-01-27T14:49:38.226Z,5.30
2018-01-27T14:52:05.662Z,5.40
2018-01-27T14:54:33.089Z,5.40
2018-01-27T14:57:01.279Z,5.30
2018-01-27T14:59:28.719Z,5.30
2018-01-27T15:01:56.921Z,5.40
2018-01-27T15:04:24.352Z,5.40
2018-01-27T15:06:52.553Z,5.30
2018-01-27T15:09:19.987Z,5.40
2018-01-27T15:11:48.198Z,5.40
2018-01-27T15:14:15.624Z,5.40
2018-01-27T15:16:43.054Z,5.40
2018-01-27T15:19:11.261Z,5.50
2018-01-27T15:21:38.687Z,5.50
2018-01-27T15:24:06.883Z,5.50
2018-01-27T15:26:34.315Z,5.50
2018-01-27T15:29:02.509Z,5.40
2018-01-27T15:31:30.710Z,5.40
2018-01-27T15:33:58.135Z,5.40
2018-01-27T15:36:26.327Z,5.30
2018-01-27T15:38:53.756Z,5.30
2018-01-27T15:41:21.964Z,5.40
2018-01-27T15:43:49.395Z,5.40
2018-01-27T15:46:17.605Z,5.40
2018-01-27T15:48:45.019Z,5.40
2018-01-27T15:51:13.283Z,5.40
2018-01-27T15:53:40.695Z,5.40
2018-01-27T15:56:09.230Z,5.50
2018-01-27T15:58:36.655Z,5.50
2018-01-27T16:01:04.094Z,5.50
2018-01-27T16:03:31.532Z,5.50
2018-01-27T16:05:58.968Z,5.60
2018-01-27T16:08:27.229Z,5.60
2018-01-27T16:10:54.662Z,5.60
2018-01-27T16:13:22.093Z,5.50
2018-01-27T16:15:49.607Z,5.60
2018-01-27T16:18:17.791Z,5.50
2018-01-27T16:20:45.996Z,5.50
2018-01-27T16:23:13.414Z,5.50
2018-01-27T16:25:41.615Z,5.50
2018-01-27T16:28:09.035Z,5.50
2018-01-27T16:30:36.464Z,5.50
2018-01-27T16:33:06.060Z,5.40
2018-01-27T16:35:33.571Z,5.30
2018-01-27T16:38:01.774Z,5.30
2018-01-27T16:40:29.200Z,5.20
2018-01-27T16:42:57.400Z,5.20
2018-01-27T16:45:24.836Z,5.20
2018-01-27T16:47:53.027Z,5.20
2018-01-27T16:50:20.455Z,5.20
2018-01-27T16:52:47.891Z,5.20
2018-01-27T16:55:15.323Z,5.20
2018-01-27T16:57:50.972Z,5.20
2018-01-27T17:00:19.500Z,5.20
2018-01-27T17:02:46.935Z,5.30
2018-01-27T17:05:14.408Z,5.30
2018-01-27T17:07:41.834Z,5.30
2018-01-27T17:10:09.344Z,5.20
2018-01-27T17:12:37.644Z,5.30
2018-01-27T17:15:05.070Z,5.30
2018-01-27T17:17:33.284Z,5.30
2018-01-27T17:20:00.702Z,5.30
2018-01-27T17:22:28.921Z,5.40
2018-01-27T17:24:56.343Z,5.40
2018-01-27T17:27:24.538Z,5.50
2018-01-27T17:29:51.968Z,5.50
2018-01-27T17:32:20.159Z,5.50
2018-01-27T17:34:47.590Z,5.50
2018-01-27T17:37:15.028Z,5.50
2018-01-27T17:39:42.463Z,5.60
2018-01-27T17:42:09.910Z,5.60
2018-01-27T17:44:37.344Z,5.60
2018-01-27T17:47:04.787Z,5.70
2018-01-27T17:49:32.982Z,5.80
2018-01-27T17:52:00.422Z,5.80
2018-01-27T17:54:28.615Z,5.80
2018-01-27T17:56:56.095Z,5.80
2018-01-27T17:59:23.534Z,5.80
2018-01-27T18:01:50.971Z,5.80
2018-01-27T18:04:19.177Z,5.80
2018-01-27T18:06:46.627Z,5.80
2018-01-27T18:09:14.050Z,5.80
2018-01-27T18:11:42.270Z,5.70
2018-01-27T18:14:09.695Z,5.70
2018-01-27T18:16:37.907Z,5.80
2018-01-27T18:19:05.955Z,5.80
2018-01-27T18:21:33.947Z,5.80
2018-01-27T18:24:01.365Z,5.80
2018-01-27T18:26:29.566Z,5.80
2018-01-27T18:28:56.984Z,5.80
2018-01-27T18:31:24.416Z,5.80
2018-01-27T18:33:51.854Z,5.80
2018-01-27T18:36:19.279Z,5.80
2018-01-27T18:38:46.708Z,5.70
2018-01-27T18:41:14.912Z,5.80
2018-01-27T18:43:42.331Z,5.80
2018-01-27T18:46:09.768Z,5.80
2018-01-27T18:48:37.203Z,5.80
2018-01-27T18:51:04.635Z,5.80
2018-01-27T18:53:32.076Z,5.90
2018-01-27T18:56:02.296Z,6.00
2018-01-27T18:58:30.499Z,6.00
2018-01-27T19:00:57.928Z,6.00
2018-01-27T19:03:26.135Z,6.00
2018-01-27T19:05:53.558Z,6.00
2018-01-27T19:08:21.766Z,6.00
2018-01-27T19:10:49.247Z,6.00
2018-01-27T19:13:17.407Z,6.00
2018-01-27T19:15:44.844Z,6.00
2018-01-27T19:18:12.274Z,6.00
2018-01-27T19:20:40.475Z,6.00
2018-01-27T19:23:08.687Z,6.00
2018-01-27T19:25:36.114Z,6.00
2018-01-27T19:28:03.551Z,6.00
2018-01-27T19:30:31.762Z,6.00
2018-01-27T19:32:59.187Z,6.00
2018-01-27T19:35:26.628Z,6.00
2018-01-27T19:37:54.058Z,6.00
2018-01-27T19:40:21.487Z,6.00
2018-01-27T19:42:48.940Z,6.00
2018-01-27T19:45:16.390Z,6.00
2018-01-27T19:47:43.818Z,6.00
2018-01-27T19:50:12.086Z,5.90
2018-01-27T19:52:40.290Z,5.80
2018-01-27T19:55:07.734Z,5.80
2018-01-27T19:57:35.937Z,5.70
2018-01-27T20:00:03.359Z,5.70
2018-01-27T20:02:31.566Z,5.80
2018-01-27T20:04:58.994Z,5.80
2018-01-27T20:07:27.212Z,5.90
2018-01-27T20:09:54.643Z,5.90
2018-01-27T20:12:22.134Z,6.00
2018-01-27T20:14:49.519Z,6.00
2018-01-27T20:17:17.464Z,6.00
2018-01-27T20:28:55.092Z,5.90
2018-01-27T20:31:22.536Z,5.90
2018-01-27T20:33:49.990Z,6.00
2018-01-27T20:36:17.446Z,6.00
2018-01-27T20:38:44.896Z,6.00
2018-01-27T20:41:12.339Z,6.00
2018-01-27T20:43:40.558Z,6.10
2018-01-27T20:46:08.002Z,6.10
2018-01-27T20:48:35.464Z,6.10
2018-01-27T20:51:04.943Z,6.10
2018-01-27T20:53:32.409Z,6.10
2018-01-27T20:55:59.846Z,6.10
2018-01-27T20:58:28.139Z,6.00
2018-01-27T21:00:55.665Z,6.00
2018-01-27T21:03:23.142Z,6.00
2018-01-27T21:05:51.360Z,5.90
2018-01-27T21:08:18.825Z,5.90
2018-01-27T21:10:46.269Z,5.90
2018-01-27T21:13:14.717Z,5.90
2018-01-27T21:15:42.936Z,5.90
2018-01-27T21:18:10.387Z,5.90
2018-01-27T21:20:38.843Z,5.90
2018-01-27T21:23:06.304Z,6.00
2018-01-27T21:25:33.742Z,6.00
2018-01-27T21:28:03.977Z,6.00
2018-01-27T21:30:31.419Z,6.00
2018-01-27T21:32:59.631Z,6.00
2018-01-27T21:35:27.071Z,5.90
2018-01-27T21:37:54.516Z,5.90
2018-01-27T21:40:22.724Z,6.00
2018-01-27T21:42:50.178Z,5.90
2018-01-27T21:45:17.635Z,6.00
2018-01-27T21:47:45.090Z,6.00
2018-01-27T21:50:12.549Z,6.00
2018-01-27T21:52:40.006Z,6.10
2018-01-27T21:55:08.473Z,6.10
2018-01-27T21:57:35.920Z,6.10
2018-01-27T22:00:03.357Z,6.10
2018-01-27T22:02:31.575Z,6.10
2018-01-27T22:04:59.027Z,6.10
2018-01-27T22:07:27.285Z,6.10
2018-01-27T22:09:54.724Z,6.10
2018-01-27T22:12:22.941Z,6.20
2018-01-27T22:14:50.392Z,6.20
2018-01-27T22:17:17.833Z,6.20
2018-01-27T22:19:45.277Z,6.20
2018-01-27T22:22:13.495Z,6.20
2018-01-27T22:24:40.932Z,6.20
2018-01-27T22:27:08.381Z,6.20
2018-01-27T22:29:35.841Z,6.20
2018-01-27T22:32:03.332Z,6.10
2018-01-27T22:34:30.784Z,6.10
2018-01-27T22:36:58.234Z,6.00
2018-01-27T22:39:25.682Z,6.00
2018-01-27T22:41:53.124Z,5.90
2018-01-27T22:44:20.576Z,5.90
2018-01-27T22:46:48.795Z,5.90
2018-01-27T22:49:16.244Z,5.90
2018-01-27T22:51:43.685Z,5.90
2018-01-27T22:54:11.131Z,5.80
2018-01-27T22:56:38.574Z,5.80
2018-01-27T22:59:06.783Z,5.80
2018-01-27T23:01:34.225Z,5.80
2018-01-27T23:04:01.668Z,5.80
2018-01-27T23:06:29.107Z,5.90
2018-01-27T23:08:56.565Z,5.90
2018-01-27T23:11:24.768Z,6.00
2018-01-27T23:13:52.260Z,6.00
2018-01-27T23:16:19.698Z,6.00
2018-01-27T23:18:47.143Z,6.00
2018-01-27T23:21:14.586Z,6.00
2018-01-27T23:23:42.796Z,6.10
2018-01-27T23:26:10.245Z,6.10
2018-01-27T23:28:37.700Z,6.10
2018-01-27T23:31:06.178Z,6.10
2018-01-27T23:33:33.622Z,6.20
2018-01-27T23:36:01.068Z,6.20
2018-01-27T23:38:29.288Z,6.20
2018-01-27T23:40:56.722Z,6.20
2018-01-27T23:43:24.167Z,6.30
2018-01-27T23:45:51.612Z,6.30
2018-01-27T23:48:19.832Z,6.30
2018-01-27T23:50:48.033Z,6.40
2018-01-27T23:53:15.479Z,6.40
2018-01-27T23:55:42.924Z,6.40
2018-01-27T23:58:10.378Z,6.40
